Wallace, South Dakota
Current Conditions -  °F | °C
As of 6:53 AM on Sunday 23 Nov 2014 (Local Time) from KATY Reporting Station
Overcast Overcast  
Wind Chill: 30°   Ceiling: 6500
Heat Index: 37°   Visibility: 10mi
Dew Point: 33°   Wind: 10mph
Humidity: 86%   Direction: 310°NW
Pressure: 29.46"   Gusts: NA
Location:  45.09°N, 97.48°W
Report Text: KATY 231253Z AUTO 31009KT 10SM BKN065 OVC090 03/01 A2946 RMK AO2 SLP989 T00280006
Loading
Personal Weather Stations






























Interactive Weather Map New forecast layout! Learn more

10-Day Weather Forecast

Advertisements
Track Severe Weather on mobile